Terminal Aerodrome Forecast
Issued by NWS

Home | Current Version | Previous Version | Text Only | Print | Product List | Glossary On
Versions: 1 2 3 4 5 6 7 8 9 10 11 12 13 14 15 16 17 18 19
000
FTUS43 KJKL 031720
TAFSME
TAF
KSME 031720Z 0318/0418 29007KT P6SM OVC035
     FM040500 VRB03KT P6SM OVC080
     FM040800 VRB05KT 4SM BR BKN050
     FM041400 25007KT P6SM BKN150
     FM041700 25011KT P6SM OVC060=

USA.gov is the U.S. government's official web portal to all federal, state and local government web resources and services.